ΕΜΥ, Εθνική Μετεωρολογική Υπηρεσία - Δελτία Καιρού, Προγνώσεις

ΑΕΡΟΝΑΥΤΙΛΙΑ

GREEK AIRPORTS CODES

LGKR 151450Z 27008KT 9999 FEW025 31/14 Q1008 NOSIG=

EUROPEAN AIRPORTS CODES

LFPO 151500Z 26004KT 230V320 9999 FEW036 SCT076 25/15 Q1005NOSIG=